sensor_id;sensor_type;location;lat;lon;timestamp;P1;durP1;ratioP1;P2;durP2;ratioP2
7377;SDS011;3730;50.856;12.776;2024-03-08T00:00:08;32.10;;;22.23;;
7377;SDS011;3730;50.856;12.776;2024-03-08T00:02:36;34.30;;;23.03;;
7377;SDS011;3730;50.856;12.776;2024-03-08T00:05:06;35.00;;;23.20;;
7377;SDS011;3730;50.856;12.776;2024-03-08T00:07:33;33.23;;;22.63;;
7377;SDS011;3730;50.856;12.776;2024-03-08T00:09:59;36.27;;;22.00;;
7377;SDS011;3730;50.856;12.776;2024-03-08T00:12:25;33.47;;;22.70;;
7377;SDS011;3730;50.856;12.776;2024-03-08T00:14:52;33.77;;;23.63;;
7377;SDS011;3730;50.856;12.776;2024-03-08T00:17:18;38.13;;;23.53;;
7377;SDS011;3730;50.856;12.776;2024-03-08T00:19:44;33.93;;;22.83;;
7377;SDS011;3730;50.856;12.776;2024-03-08T00:22:10;34.27;;;23.00;;
7377;SDS011;3730;50.856;12.776;2024-03-08T00:24:36;32.30;;;21.70;;
7377;SDS011;3730;50.856;12.776;2024-03-08T00:27:02;36.67;;;23.70;;
7377;SDS011;3730;50.856;12.776;2024-03-08T00:29:29;40.87;;;24.40;;
7377;SDS011;3730;50.856;12.776;2024-03-08T00:31:55;31.77;;;22.57;;
7377;SDS011;3730;50.856;12.776;2024-03-08T00:34:22;36.70;;;23.90;;
7377;SDS011;3730;50.856;12.776;2024-03-08T00:36:49;31.70;;;22.40;;
7377;SDS011;3730;50.856;12.776;2024-03-08T00:39:17;31.97;;;22.50;;
7377;SDS011;3730;50.856;12.776;2024-03-08T00:41:45;32.13;;;22.37;;
7377;SDS011;3730;50.856;12.776;2024-03-08T00:44:11;34.23;;;22.47;;
7377;SDS011;3730;50.856;12.776;2024-03-08T00:46:37;32.77;;;22.40;;
7377;SDS011;3730;50.856;12.776;2024-03-08T00:49:03;36.50;;;23.43;;
7377;SDS011;3730;50.856;12.776;2024-03-08T00:51:29;33.90;;;22.43;;
7377;SDS011;3730;50.856;12.776;2024-03-08T00:53:55;33.63;;;22.67;;
7377;SDS011;3730;50.856;12.776;2024-03-08T00:56:21;36.97;;;24.43;;
7377;SDS011;3730;50.856;12.776;2024-03-08T00:58:47;34.73;;;23.57;;
7377;SDS011;3730;50.856;12.776;2024-03-08T01:01:13;33.10;;;22.87;;
7377;SDS011;3730;50.856;12.776;2024-03-08T01:03:42;34.27;;;22.80;;
7377;SDS011;3730;50.856;12.776;2024-03-08T01:06:08;35.83;;;23.00;;
7377;SDS011;3730;50.856;12.776;2024-03-08T01:08:34;37.37;;;23.70;;
7377;SDS011;3730;50.856;12.776;2024-03-08T01:11:03;35.50;;;23.80;;
7377;SDS011;3730;50.856;12.776;2024-03-08T01:13:29;34.83;;;24.07;;
7377;SDS011;3730;50.856;12.776;2024-03-08T01:15:55;36.83;;;24.90;;
7377;SDS011;3730;50.856;12.776;2024-03-08T01:18:21;35.33;;;23.70;;
7377;SDS011;3730;50.856;12.776;2024-03-08T01:20:47;34.90;;;23.60;;
7377;SDS011;3730;50.856;12.776;2024-03-08T01:23:13;37.10;;;24.80;;
7377;SDS011;3730;50.856;12.776;2024-03-08T01:25:39;37.23;;;24.20;;
7377;SDS011;3730;50.856;12.776;2024-03-08T01:28:06;36.93;;;24.23;;
7377;SDS011;3730;50.856;12.776;2024-03-08T01:30:32;38.73;;;24.47;;
7377;SDS011;3730;50.856;12.776;2024-03-08T01:33:00;39.40;;;24.50;;
7377;SDS011;3730;50.856;12.776;2024-03-08T01:35:26;37.43;;;25.17;;
7377;SDS011;3730;50.856;12.776;2024-03-08T01:37:52;37.83;;;25.07;;
7377;SDS011;3730;50.856;12.776;2024-03-08T01:40:18;41.40;;;25.90;;
7377;SDS011;3730;50.856;12.776;2024-03-08T01:42:44;40.90;;;25.27;;
7377;SDS011;3730;50.856;12.776;2024-03-08T01:45:10;42.53;;;26.40;;
7377;SDS011;3730;50.856;12.776;2024-03-08T01:47:36;38.77;;;24.90;;
7377;SDS011;3730;50.856;12.776;2024-03-08T01:50:02;37.57;;;24.93;;
7377;SDS011;3730;50.856;12.776;2024-03-08T01:52:29;39.47;;;24.90;;
7377;SDS011;3730;50.856;12.776;2024-03-08T01:54:57;39.77;;;24.90;;
7377;SDS011;3730;50.856;12.776;2024-03-08T01:57:25;40.43;;;25.57;;
7377;SDS011;3730;50.856;12.776;2024-03-08T01:59:51;39.60;;;25.93;;
7377;SDS011;3730;50.856;12.776;2024-03-08T02:02:20;39.77;;;25.97;;
7377;SDS011;3730;50.856;12.776;2024-03-08T02:04:47;40.80;;;26.87;;
7377;SDS011;3730;50.856;12.776;2024-03-08T02:07:13;39.20;;;26.23;;
7377;SDS011;3730;50.856;12.776;2024-03-08T02:09:39;41.60;;;26.90;;
7377;SDS011;3730;50.856;12.776;2024-03-08T02:12:06;39.47;;;25.57;;
7377;SDS011;3730;50.856;12.776;2024-03-08T02:14:33;40.63;;;26.40;;
7377;SDS011;3730;50.856;12.776;2024-03-08T02:17:02;42.50;;;27.20;;
7377;SDS011;3730;50.856;12.776;2024-03-08T02:19:29;42.83;;;27.07;;
7377;SDS011;3730;50.856;12.776;2024-03-08T02:21:55;42.40;;;26.50;;
7377;SDS011;3730;50.856;12.776;2024-03-08T02:24:21;42.50;;;26.47;;
7377;SDS011;3730;50.856;12.776;2024-03-08T02:26:48;39.73;;;26.00;;
7377;SDS011;3730;50.856;12.776;2024-03-08T02:29:14;45.83;;;26.53;;
7377;SDS011;3730;50.856;12.776;2024-03-08T02:31:40;46.63;;;28.40;;
7377;SDS011;3730;50.856;12.776;2024-03-08T02:34:07;38.97;;;26.17;;
7377;SDS011;3730;50.856;12.776;2024-03-08T02:36:34;40.97;;;27.07;;
7377;SDS011;3730;50.856;12.776;2024-03-08T02:39:03;45.23;;;26.60;;
7377;SDS011;3730;50.856;12.776;2024-03-08T02:41:30;41.43;;;26.03;;
7377;SDS011;3730;50.856;12.776;2024-03-08T02:43:57;43.70;;;27.93;;
7377;SDS011;3730;50.856;12.776;2024-03-08T02:46:23;42.17;;;26.50;;
7377;SDS011;3730;50.856;12.776;2024-03-08T02:48:49;44.50;;;26.93;;
7377;SDS011;3730;50.856;12.776;2024-03-08T02:51:15;41.23;;;26.27;;
7377;SDS011;3730;50.856;12.776;2024-03-08T02:53:41;41.60;;;26.40;;
7377;SDS011;3730;50.856;12.776;2024-03-08T02:56:08;41.13;;;26.43;;
7377;SDS011;3730;50.856;12.776;2024-03-08T02:58:38;43.67;;;26.93;;
7377;SDS011;3730;50.856;12.776;2024-03-08T03:01:04;43.03;;;26.67;;
7377;SDS011;3730;50.856;12.776;2024-03-08T03:03:30;41.27;;;26.47;;
7377;SDS011;3730;50.856;12.776;2024-03-08T03:05:56;46.07;;;27.87;;
7377;SDS011;3730;50.856;12.776;2024-03-08T03:08:21;43.33;;;27.27;;
7377;SDS011;3730;50.856;12.776;2024-03-08T03:10:48;39.90;;;26.00;;
7377;SDS011;3730;50.856;12.776;2024-03-08T03:13:15;40.10;;;25.60;;
7377;SDS011;3730;50.856;12.776;2024-03-08T03:15:41;45.37;;;27.77;;
7377;SDS011;3730;50.856;12.776;2024-03-08T03:18:07;42.03;;;27.10;;
7377;SDS011;3730;50.856;12.776;2024-03-08T03:20:33;43.83;;;26.93;;
7377;SDS011;3730;50.856;12.776;2024-03-08T03:23:05;40.80;;;26.43;;
7377;SDS011;3730;50.856;12.776;2024-03-08T03:25:33;44.07;;;28.10;;
7377;SDS011;3730;50.856;12.776;2024-03-08T03:28:00;41.60;;;26.60;;
7377;SDS011;3730;50.856;12.776;2024-03-08T03:30:26;44.03;;;27.23;;
7377;SDS011;3730;50.856;12.776;2024-03-08T03:32:55;41.40;;;26.77;;
7377;SDS011;3730;50.856;12.776;2024-03-08T03:35:25;44.73;;;27.07;;
7377;SDS011;3730;50.856;12.776;2024-03-08T03:37:51;43.97;;;27.30;;
7377;SDS011;3730;50.856;12.776;2024-03-08T03:40:35;41.37;;;26.77;;
7377;SDS011;3730;50.856;12.776;2024-03-08T03:43:02;43.57;;;27.10;;
7377;SDS011;3730;50.856;12.776;2024-03-08T03:45:28;42.37;;;26.27;;
7377;SDS011;3730;50.856;12.776;2024-03-08T03:47:54;44.60;;;26.43;;
7377;SDS011;3730;50.856;12.776;2024-03-08T03:50:20;39.67;;;25.60;;
7377;SDS011;3730;50.856;12.776;2024-03-08T03:52:50;44.40;;;26.67;;
7377;SDS011;3730;50.856;12.776;2024-03-08T03:55:16;45.20;;;26.47;;
7377;SDS011;3730;50.856;12.776;2024-03-08T03:57:42;43.17;;;27.40;;
7377;SDS011;3730;50.856;12.776;2024-03-08T04:00:10;41.60;;;25.37;;
7377;SDS011;3730;50.856;12.776;2024-03-08T04:02:37;43.33;;;27.23;;
7377;SDS011;3730;50.856;12.776;2024-03-08T04:05:04;40.57;;;26.33;;
7377;SDS011;3730;50.856;12.776;2024-03-08T04:07:30;45.50;;;25.67;;
7377;SDS011;3730;50.856;12.776;2024-03-08T04:09:56;40.23;;;25.60;;
7377;SDS011;3730;50.856;12.776;2024-03-08T04:12:22;39.97;;;26.07;;
7377;SDS011;3730;50.856;12.776;2024-03-08T04:14:48;47.17;;;27.60;;
7377;SDS011;3730;50.856;12.776;2024-03-08T04:17:14;41.63;;;26.37;;
7377;SDS011;3730;50.856;12.776;2024-03-08T04:19:41;42.43;;;27.00;;
7377;SDS011;3730;50.856;12.776;2024-03-08T04:22:08;41.77;;;25.90;;
7377;SDS011;3730;50.856;12.776;2024-03-08T04:24:34;44.23;;;26.23;;
7377;SDS011;3730;50.856;12.776;2024-03-08T04:27:00;41.47;;;26.27;;
7377;SDS011;3730;50.856;12.776;2024-03-08T04:29:26;44.40;;;27.03;;
7377;SDS011;3730;50.856;12.776;2024-03-08T04:31:52;42.50;;;27.47;;
7377;SDS011;3730;50.856;12.776;2024-03-08T04:34:19;40.27;;;25.93;;
7377;SDS011;3730;50.856;12.776;2024-03-08T04:36:46;44.33;;;27.03;;
7377;SDS011;3730;50.856;12.776;2024-03-08T04:39:11;43.70;;;26.33;;
7377;SDS011;3730;50.856;12.776;2024-03-08T04:41:38;44.50;;;25.77;;
7377;SDS011;3730;50.856;12.776;2024-03-08T04:44:04;45.00;;;27.20;;
7377;SDS011;3730;50.856;12.776;2024-03-08T04:46:30;44.80;;;26.87;;
7377;SDS011;3730;50.856;12.776;2024-03-08T04:48:56;38.70;;;24.70;;
7377;SDS011;3730;50.856;12.776;2024-03-08T04:51:24;40.20;;;26.23;;
7377;SDS011;3730;50.856;12.776;2024-03-08T04:53:50;41.33;;;25.50;;
7377;SDS011;3730;50.856;12.776;2024-03-08T04:56:16;39.23;;;25.33;;
7377;SDS011;3730;50.856;12.776;2024-03-08T04:58:44;39.77;;;23.93;;
7377;SDS011;3730;50.856;12.776;2024-03-08T05:01:11;41.50;;;25.47;;
7377;SDS011;3730;50.856;12.776;2024-03-08T05:03:37;39.73;;;26.30;;
7377;SDS011;3730;50.856;12.776;2024-03-08T05:06:04;46.73;;;27.93;;
7377;SDS011;3730;50.856;12.776;2024-03-08T05:08:30;40.43;;;27.07;;
7377;SDS011;3730;50.856;12.776;2024-03-08T05:10:56;45.37;;;28.20;;
7377;SDS011;3730;50.856;12.776;2024-03-08T05:13:22;47.97;;;27.90;;
7377;SDS011;3730;50.856;12.776;2024-03-08T05:15:48;45.20;;;27.77;;
7377;SDS011;3730;50.856;12.776;2024-03-08T05:18:17;44.13;;;28.50;;
7377;SDS011;3730;50.856;12.776;2024-03-08T05:20:43;46.27;;;27.80;;
7377;SDS011;3730;50.856;12.776;2024-03-08T05:23:09;44.37;;;26.33;;
7377;SDS011;3730;50.856;12.776;2024-03-08T05:25:35;40.33;;;26.53;;
7377;SDS011;3730;50.856;12.776;2024-03-08T05:28:01;53.23;;;27.00;;
7377;SDS011;3730;50.856;12.776;2024-03-08T05:30:29;43.50;;;26.73;;
7377;SDS011;3730;50.856;12.776;2024-03-08T05:32:55;44.33;;;27.30;;
7377;SDS011;3730;50.856;12.776;2024-03-08T05:35:21;43.07;;;26.63;;
7377;SDS011;3730;50.856;12.776;2024-03-08T05:37:47;41.73;;;25.87;;
7377;SDS011;3730;50.856;12.776;2024-03-08T05:40:14;41.73;;;25.93;;
7377;SDS011;3730;50.856;12.776;2024-03-08T05:42:40;49.70;;;26.90;;
7377;SDS011;3730;50.856;12.776;2024-03-08T05:45:06;41.17;;;26.93;;
7377;SDS011;3730;50.856;12.776;2024-03-08T05:47:32;44.27;;;26.83;;
7377;SDS011;3730;50.856;12.776;2024-03-08T05:49:58;44.37;;;26.87;;
7377;SDS011;3730;50.856;12.776;2024-03-08T05:52:25;43.07;;;27.13;;
7377;SDS011;3730;50.856;12.776;2024-03-08T05:54:51;48.00;;;28.60;;
7377;SDS011;3730;50.856;12.776;2024-03-08T05:57:17;43.07;;;26.80;;
7377;SDS011;3730;50.856;12.776;2024-03-08T05:59:43;48.63;;;27.40;;
7377;SDS011;3730;50.856;12.776;2024-03-08T06:02:09;46.87;;;27.40;;
7377;SDS011;3730;50.856;12.776;2024-03-08T06:04:36;43.33;;;27.00;;
7377;SDS011;3730;50.856;12.776;2024-03-08T06:07:03;45.87;;;27.40;;
7377;SDS011;3730;50.856;12.776;2024-03-08T06:09:29;49.33;;;28.67;;
7377;SDS011;3730;50.856;12.776;2024-03-08T06:11:55;47.13;;;28.40;;
7377;SDS011;3730;50.856;12.776;2024-03-08T06:14:22;51.10;;;27.50;;
7377;SDS011;3730;50.856;12.776;2024-03-08T06:16:48;47.90;;;29.63;;
7377;SDS011;3730;50.856;12.776;2024-03-08T06:19:17;48.37;;;28.83;;
7377;SDS011;3730;50.856;12.776;2024-03-08T06:21:43;49.33;;;28.60;;
7377;SDS011;3730;50.856;12.776;2024-03-08T06:24:09;43.00;;;26.60;;
7377;SDS011;3730;50.856;12.776;2024-03-08T06:26:35;45.80;;;28.60;;
7377;SDS011;3730;50.856;12.776;2024-03-08T06:29:02;44.63;;;27.10;;
7377;SDS011;3730;50.856;12.776;2024-03-08T06:31:31;43.83;;;27.87;;
7377;SDS011;3730;50.856;12.776;2024-03-08T06:33:57;47.33;;;28.37;;
7377;SDS011;3730;50.856;12.776;2024-03-08T06:36:23;46.40;;;27.73;;
7377;SDS011;3730;50.856;12.776;2024-03-08T06:38:49;45.33;;;28.53;;
7377;SDS011;3730;50.856;12.776;2024-03-08T06:41:16;43.30;;;26.23;;
7377;SDS011;3730;50.856;12.776;2024-03-08T06:43:42;20.40;;;13.47;;
7377;SDS011;3730;50.856;12.776;2024-03-08T06:46:08;45.40;;;28.17;;
7377;SDS011;3730;50.856;12.776;2024-03-08T06:48:35;49.13;;;29.73;;
7377;SDS011;3730;50.856;12.776;2024-03-08T06:51:02;45.00;;;28.10;;
7377;SDS011;3730;50.856;12.776;2024-03-08T06:53:29;46.07;;;26.67;;
7377;SDS011;3730;50.856;12.776;2024-03-08T06:55:55;44.03;;;27.37;;
7377;SDS011;3730;50.856;12.776;2024-03-08T06:58:22;45.37;;;28.23;;
7377;SDS011;3730;50.856;12.776;2024-03-08T07:00:48;44.00;;;27.77;;
7377;SDS011;3730;50.856;12.776;2024-03-08T07:03:17;49.83;;;29.30;;
7377;SDS011;3730;50.856;12.776;2024-03-08T07:05:43;41.47;;;27.53;;
7377;SDS011;3730;50.856;12.776;2024-03-08T07:08:09;47.20;;;28.23;;
7377;SDS011;3730;50.856;12.776;2024-03-08T07:10:35;44.83;;;27.40;;
7377;SDS011;3730;50.856;12.776;2024-03-08T07:13:02;48.20;;;28.07;;
7377;SDS011;3730;50.856;12.776;2024-03-08T07:15:28;48.47;;;28.53;;
7377;SDS011;3730;50.856;12.776;2024-03-08T07:17:54;50.63;;;27.47;;
7377;SDS011;3730;50.856;12.776;2024-03-08T07:20:21;43.87;;;27.33;;
7377;SDS011;3730;50.856;12.776;2024-03-08T07:22:47;47.13;;;28.30;;
7377;SDS011;3730;50.856;12.776;2024-03-08T07:25:13;46.90;;;29.67;;
7377;SDS011;3730;50.856;12.776;2024-03-08T07:27:50;47.67;;;28.07;;
7377;SDS011;3730;50.856;12.776;2024-03-08T07:30:22;51.20;;;29.70;;
7377;SDS011;3730;50.856;12.776;2024-03-08T07:33:27;49.67;;;29.17;;
7377;SDS011;3730;50.856;12.776;2024-03-08T07:35:53;46.07;;;28.77;;
7377;SDS011;3730;50.856;12.776;2024-03-08T07:38:19;50.40;;;28.70;;
7377;SDS011;3730;50.856;12.776;2024-03-08T07:40:46;46.57;;;27.80;;
7377;SDS011;3730;50.856;12.776;2024-03-08T07:43:13;45.37;;;27.30;;
7377;SDS011;3730;50.856;12.776;2024-03-08T07:45:39;51.07;;;28.17;;
7377;SDS011;3730;50.856;12.776;2024-03-08T07:48:05;41.00;;;26.83;;
7377;SDS011;3730;50.856;12.776;2024-03-08T07:50:38;45.43;;;27.23;;
7377;SDS011;3730;50.856;12.776;2024-03-08T07:53:04;46.03;;;27.83;;
7377;SDS011;3730;50.856;12.776;2024-03-08T07:55:31;42.97;;;27.93;;
7377;SDS011;3730;50.856;12.776;2024-03-08T07:57:57;48.93;;;29.07;;
7377;SDS011;3730;50.856;12.776;2024-03-08T08:00:23;43.03;;;27.67;;
7377;SDS011;3730;50.856;12.776;2024-03-08T08:02:52;41.73;;;26.53;;
7377;SDS011;3730;50.856;12.776;2024-03-08T08:05:18;40.43;;;25.97;;
7377;SDS011;3730;50.856;12.776;2024-03-08T08:07:44;40.43;;;26.77;;
7377;SDS011;3730;50.856;12.776;2024-03-08T08:10:11;44.80;;;26.17;;
7377;SDS011;3730;50.856;12.776;2024-03-08T08:12:46;40.77;;;25.03;;
7377;SDS011;3730;50.856;12.776;2024-03-08T08:15:13;44.67;;;26.17;;
7377;SDS011;3730;50.856;12.776;2024-03-08T08:17:40;41.10;;;25.60;;
7377;SDS011;3730;50.856;12.776;2024-03-08T08:20:06;41.07;;;25.50;;
7377;SDS011;3730;50.856;12.776;2024-03-08T08:22:32;37.70;;;24.33;;
7377;SDS011;3730;50.856;12.776;2024-03-08T08:24:58;39.17;;;24.33;;
7377;SDS011;3730;50.856;12.776;2024-03-08T08:27:24;39.37;;;24.30;;
7377;SDS011;3730;50.856;12.776;2024-03-08T08:29:51;37.97;;;23.80;;
7377;SDS011;3730;50.856;12.776;2024-03-08T08:32:17;34.07;;;21.67;;
7377;SDS011;3730;50.856;12.776;2024-03-08T08:34:43;39.67;;;23.70;;
7377;SDS011;3730;50.856;12.776;2024-03-08T08:37:09;40.23;;;22.63;;
7377;SDS011;3730;50.856;12.776;2024-03-08T08:39:35;39.60;;;22.50;;
7377;SDS011;3730;50.856;12.776;2024-03-08T08:42:02;38.67;;;23.50;;
7377;SDS011;3730;50.856;12.776;2024-03-08T08:44:28;35.63;;;22.40;;
7377;SDS011;3730;50.856;12.776;2024-03-08T08:46:56;35.60;;;22.97;;
7377;SDS011;3730;50.856;12.776;2024-03-08T08:49:22;32.83;;;22.23;;
7377;SDS011;3730;50.856;12.776;2024-03-08T08:51:52;36.67;;;22.13;;
7377;SDS011;3730;50.856;12.776;2024-03-08T08:54:18;33.83;;;22.07;;
7377;SDS011;3730;50.856;12.776;2024-03-08T08:56:45;35.83;;;22.73;;
7377;SDS011;3730;50.856;12.776;2024-03-08T08:59:12;35.50;;;22.70;;
7377;SDS011;3730;50.856;12.776;2024-03-08T09:01:41;40.50;;;22.80;;
7377;SDS011;3730;50.856;12.776;2024-03-08T09:04:07;34.60;;;22.23;;
7377;SDS011;3730;50.856;12.776;2024-03-08T09:06:33;33.77;;;22.77;;
7377;SDS011;3730;50.856;12.776;2024-03-08T09:09:00;31.70;;;22.13;;
7377;SDS011;3730;50.856;12.776;2024-03-08T09:11:28;29.77;;;20.00;;
7377;SDS011;3730;50.856;12.776;2024-03-08T09:13:55;31.90;;;22.47;;
7377;SDS011;3730;50.856;12.776;2024-03-08T09:16:20;34.37;;;22.17;;
7377;SDS011;3730;50.856;12.776;2024-03-08T09:18:46;38.90;;;22.13;;
7377;SDS011;3730;50.856;12.776;2024-03-08T09:21:13;30.13;;;21.27;;
7377;SDS011;3730;50.856;12.776;2024-03-08T09:23:39;35.77;;;22.63;;
7377;SDS011;3730;50.856;12.776;2024-03-08T09:26:06;31.43;;;21.30;;
7377;SDS011;3730;50.856;12.776;2024-03-08T09:28:34;31.40;;;19.93;;
7377;SDS011;3730;50.856;12.776;2024-03-08T09:31:00;29.07;;;20.50;;
7377;SDS011;3730;50.856;12.776;2024-03-08T09:33:26;28.27;;;20.17;;
7377;SDS011;3730;50.856;12.776;2024-03-08T09:35:53;31.27;;;20.37;;
7377;SDS011;3730;50.856;12.776;2024-03-08T09:38:19;29.17;;;19.57;;
7377;SDS011;3730;50.856;12.776;2024-03-08T09:40:45;30.13;;;20.80;;
7377;SDS011;3730;50.856;12.776;2024-03-08T09:43:12;34.17;;;20.83;;
7377;SDS011;3730;50.856;12.776;2024-03-08T09:45:38;35.30;;;22.13;;
7377;SDS011;3730;50.856;12.776;2024-03-08T09:48:06;35.43;;;21.37;;
7377;SDS011;3730;50.856;12.776;2024-03-08T09:50:37;28.57;;;20.13;;
7377;SDS011;3730;50.856;12.776;2024-03-08T09:53:03;35.00;;;20.50;;
7377;SDS011;3730;50.856;12.776;2024-03-08T09:55:29;32.83;;;21.07;;
7377;SDS011;3730;50.856;12.776;2024-03-08T09:57:59;29.60;;;20.43;;
7377;SDS011;3730;50.856;12.776;2024-03-08T10:00:46;30.37;;;19.03;;
7377;SDS011;3730;50.856;12.776;2024-03-08T10:03:12;29.37;;;18.23;;
7377;SDS011;3730;50.856;12.776;2024-03-08T10:05:40;33.57;;;20.20;;
7377;SDS011;3730;50.856;12.776;2024-03-08T10:08:06;30.33;;;19.07;;
7377;SDS011;3730;50.856;12.776;2024-03-08T10:10:33;30.57;;;18.40;;
7377;SDS011;3730;50.856;12.776;2024-03-08T10:13:00;28.67;;;19.13;;
7377;SDS011;3730;50.856;12.776;2024-03-08T10:15:29;36.07;;;19.10;;
7377;SDS011;3730;50.856;12.776;2024-03-08T10:17:58;28.33;;;19.27;;
7377;SDS011;3730;50.856;12.776;2024-03-08T10:20:24;30.77;;;18.10;;
7377;SDS011;3730;50.856;12.776;2024-03-08T10:22:51;28.70;;;18.73;;
7377;SDS011;3730;50.856;12.776;2024-03-08T10:25:18;27.73;;;18.70;;
7377;SDS011;3730;50.856;12.776;2024-03-08T10:27:44;27.47;;;18.80;;
7377;SDS011;3730;50.856;12.776;2024-03-08T10:30:15;26.33;;;17.43;;
7377;SDS011;3730;50.856;12.776;2024-03-08T10:32:45;25.47;;;17.50;;
7377;SDS011;3730;50.856;12.776;2024-03-08T10:35:11;31.73;;;18.07;;
7377;SDS011;3730;50.856;12.776;2024-03-08T10:37:58;26.50;;;17.00;;
7377;SDS011;3730;50.856;12.776;2024-03-08T10:40:25;23.30;;;16.83;;
7377;SDS011;3730;50.856;12.776;2024-03-08T10:42:54;27.53;;;17.60;;
7377;SDS011;3730;50.856;12.776;2024-03-08T10:45:39;42.53;;;18.13;;
7377;SDS011;3730;50.856;12.776;2024-03-08T10:48:11;30.17;;;16.50;;
7377;SDS011;3730;50.856;12.776;2024-03-08T10:50:43;26.33;;;17.70;;
7377;SDS011;3730;50.856;12.776;2024-03-08T10:53:15;25.30;;;17.10;;
7377;SDS011;3730;50.856;12.776;2024-03-08T10:55:41;23.40;;;17.23;;
7377;SDS011;3730;50.856;12.776;2024-03-08T10:58:08;23.70;;;16.40;;
7377;SDS011;3730;50.856;12.776;2024-03-08T11:00:35;27.17;;;16.87;;
7377;SDS011;3730;50.856;12.776;2024-03-08T11:03:02;24.27;;;16.83;;
7377;SDS011;3730;50.856;12.776;2024-03-08T11:05:46;23.73;;;16.20;;
7377;SDS011;3730;50.856;12.776;2024-03-08T11:08:17;27.63;;;17.10;;
7377;SDS011;3730;50.856;12.776;2024-03-08T11:10:47;22.47;;;15.63;;
7377;SDS011;3730;50.856;12.776;2024-03-08T11:13:35;24.97;;;16.47;;
7377;SDS011;3730;50.856;12.776;2024-03-08T11:16:02;20.93;;;14.70;;
7377;SDS011;3730;50.856;12.776;2024-03-08T11:18:33;25.07;;;15.20;;
7377;SDS011;3730;50.856;12.776;2024-03-08T11:21:08;20.20;;;14.43;;
7377;SDS011;3730;50.856;12.776;2024-03-08T11:23:38;21.10;;;15.17;;
7377;SDS011;3730;50.856;12.776;2024-03-08T11:26:19;19.50;;;14.63;;
7377;SDS011;3730;50.856;12.776;2024-03-08T11:28:45;23.17;;;14.10;;
7377;SDS011;3730;50.856;12.776;2024-03-08T11:33:39;21.10;;;15.47;;
7377;SDS011;3730;50.856;12.776;2024-03-08T11:36:27;24.53;;;14.23;;
7377;SDS011;3730;50.856;12.776;2024-03-08T11:38:54;21.00;;;15.07;;
7377;SDS011;3730;50.856;12.776;2024-03-08T11:41:23;21.17;;;14.67;;
7377;SDS011;3730;50.856;12.776;2024-03-08T11:43:50;26.10;;;15.27;;
7377;SDS011;3730;50.856;12.776;2024-03-08T11:46:26;27.03;;;15.20;;
7377;SDS011;3730;50.856;12.776;2024-03-08T11:48:53;20.80;;;14.93;;
7377;SDS011;3730;50.856;12.776;2024-03-08T11:51:21;25.77;;;15.13;;
7377;SDS011;3730;50.856;12.776;2024-03-08T11:53:49;20.30;;;14.57;;
7377;SDS011;3730;50.856;12.776;2024-03-08T11:56:15;22.50;;;15.53;;
7377;SDS011;3730;50.856;12.776;2024-03-08T11:58:42;21.10;;;14.97;;
7377;SDS011;3730;50.856;12.776;2024-03-08T12:01:08;20.97;;;14.63;;
7377;SDS011;3730;50.856;12.776;2024-03-08T12:03:37;22.07;;;16.13;;
7377;SDS011;3730;50.856;12.776;2024-03-08T12:06:03;19.30;;;14.80;;
7377;SDS011;3730;50.856;12.776;2024-03-08T12:08:32;18.10;;;14.47;;
7377;SDS011;3730;50.856;12.776;2024-03-08T12:10:58;18.87;;;14.40;;
7377;SDS011;3730;50.856;12.776;2024-03-08T12:13:25;20.63;;;14.83;;
7377;SDS011;3730;50.856;12.776;2024-03-08T12:15:54;19.00;;;14.27;;
7377;SDS011;3730;50.856;12.776;2024-03-08T12:18:20;20.30;;;15.43;;
7377;SDS011;3730;50.856;12.776;2024-03-08T12:20:46;20.70;;;14.50;;
7377;SDS011;3730;50.856;12.776;2024-03-08T12:23:15;17.83;;;12.17;;
7377;SDS011;3730;50.856;12.776;2024-03-08T12:25:41;12.30;;;10.13;;
7377;SDS011;3730;50.856;12.776;2024-03-08T12:28:11;16.13;;;12.30;;
7377;SDS011;3730;50.856;12.776;2024-03-08T12:33:13;23.33;;;15.00;;
7377;SDS011;3730;50.856;12.776;2024-03-08T12:35:39;18.93;;;14.03;;
7377;SDS011;3730;50.856;12.776;2024-03-08T12:38:13;18.43;;;14.00;;
7377;SDS011;3730;50.856;12.776;2024-03-08T12:40:40;20.00;;;14.50;;
7377;SDS011;3730;50.856;12.776;2024-03-08T12:43:07;22.67;;;14.43;;
7377;SDS011;3730;50.856;12.776;2024-03-08T12:45:33;17.37;;;13.57;;
7377;SDS011;3730;50.856;12.776;2024-03-08T12:47:59;21.50;;;13.47;;
7377;SDS011;3730;50.856;12.776;2024-03-08T12:50:25;18.77;;;13.37;;
7377;SDS011;3730;50.856;12.776;2024-03-08T12:52:51;17.47;;;13.30;;
7377;SDS011;3730;50.856;12.776;2024-03-08T12:55:20;19.60;;;13.93;;
7377;SDS011;3730;50.856;12.776;2024-03-08T12:57:46;21.53;;;14.77;;
7377;SDS011;3730;50.856;12.776;2024-03-08T13:00:14;24.60;;;14.53;;
7377;SDS011;3730;50.856;12.776;2024-03-08T13:02:48;19.47;;;14.73;;
7377;SDS011;3730;50.856;12.776;2024-03-08T13:05:16;19.00;;;14.07;;
7377;SDS011;3730;50.856;12.776;2024-03-08T13:07:42;19.87;;;14.37;;
7377;SDS011;3730;50.856;12.776;2024-03-08T13:10:11;19.33;;;14.67;;
7377;SDS011;3730;50.856;12.776;2024-03-08T13:12:39;25.43;;;14.73;;
7377;SDS011;3730;50.856;12.776;2024-03-08T13:15:06;20.50;;;12.90;;
7377;SDS011;3730;50.856;12.776;2024-03-08T13:17:34;18.07;;;13.30;;
7377;SDS011;3730;50.856;12.776;2024-03-08T13:20:00;22.43;;;13.13;;
7377;SDS011;3730;50.856;12.776;2024-03-08T13:22:26;19.17;;;12.83;;
7377;SDS011;3730;50.856;12.776;2024-03-08T13:24:53;16.87;;;13.30;;
7377;SDS011;3730;50.856;12.776;2024-03-08T13:27:19;21.73;;;13.00;;
7377;SDS011;3730;50.856;12.776;2024-03-08T13:29:47;19.53;;;13.83;;
7377;SDS011;3730;50.856;12.776;2024-03-08T13:32:14;20.43;;;13.97;;
7377;SDS011;3730;50.856;12.776;2024-03-08T13:34:40;16.00;;;12.07;;
7377;SDS011;3730;50.856;12.776;2024-03-08T13:37:06;19.10;;;12.60;;
7377;SDS011;3730;50.856;12.776;2024-03-08T13:39:34;16.90;;;11.73;;
7377;SDS011;3730;50.856;12.776;2024-03-08T13:42:14;23.60;;;13.30;;
7377;SDS011;3730;50.856;12.776;2024-03-08T13:44:47;18.87;;;12.17;;
7377;SDS011;3730;50.856;12.776;2024-03-08T13:47:14;18.93;;;12.47;;
7377;SDS011;3730;50.856;12.776;2024-03-08T13:49:40;23.97;;;13.23;;
7377;SDS011;3730;50.856;12.776;2024-03-08T13:52:06;18.23;;;12.77;;
7377;SDS011;3730;50.856;12.776;2024-03-08T13:54:33;18.87;;;12.80;;
7377;SDS011;3730;50.856;12.776;2024-03-08T13:57:00;16.60;;;12.20;;
7377;SDS011;3730;50.856;12.776;2024-03-08T13:59:28;19.07;;;12.63;;
7377;SDS011;3730;50.856;12.776;2024-03-08T14:01:55;18.27;;;13.60;;
7377;SDS011;3730;50.856;12.776;2024-03-08T14:04:22;18.27;;;14.73;;
7377;SDS011;3730;50.856;12.776;2024-03-08T14:06:49;16.67;;;13.30;;
7377;SDS011;3730;50.856;12.776;2024-03-08T14:09:14;18.30;;;12.87;;
7377;SDS011;3730;50.856;12.776;2024-03-08T14:11:44;21.23;;;13.40;;
7377;SDS011;3730;50.856;12.776;2024-03-08T14:14:10;17.53;;;13.17;;
7377;SDS011;3730;50.856;12.776;2024-03-08T14:16:37;18.13;;;13.60;;
7377;SDS011;3730;50.856;12.776;2024-03-08T14:19:06;18.33;;;14.10;;
7377;SDS011;3730;50.856;12.776;2024-03-08T14:21:34;18.40;;;13.97;;
7377;SDS011;3730;50.856;12.776;2024-03-08T14:24:02;17.20;;;13.60;;
7377;SDS011;3730;50.856;12.776;2024-03-08T14:26:29;17.43;;;14.10;;
7377;SDS011;3730;50.856;12.776;2024-03-08T14:28:55;18.57;;;14.27;;
7377;SDS011;3730;50.856;12.776;2024-03-08T14:31:22;19.70;;;13.80;;
7377;SDS011;3730;50.856;12.776;2024-03-08T14:33:50;16.93;;;13.67;;
7377;SDS011;3730;50.856;12.776;2024-03-08T14:36:19;19.20;;;13.40;;
7377;SDS011;3730;50.856;12.776;2024-03-08T14:38:46;16.83;;;13.53;;